Flight Number: AVA1046 Duration: 1:00
Departure: Frankfurt am Main (EDDF) at 01:00 Distance: 151.859 Nm
Arrival: Basel-Mulhouse (LFSB) at 02:00 Equipment: ATR72

Weather Information
Frankfurt / M-Flughafen, Germany (EDDF) 50-03N 008-36E 113M Aug 14, 2020 - 06:20 PM EDT / 2020.08.14 2220 UTC
Wind: from the SSW (210 degrees) at 2 MPH (2 KT):0
Visibility: greater than 7 mile(s):0 Temperature: 66 F (19 C) Dew Point: 64 F (18 C) Relative Humidity: 93% Pressure (altimeter): 29.97 in. Hg (1015 hPa)
ob: EDDF 142220Z 21002KT CAVOK 19/18 Q1015 NOSIG cycle: 22
Sunrise: 04:19 Sunset: 18:41 (UTC)

Bale-Mulhouse, France (LFSB) 47-36N 007-31E 271M Aug 14, 2020 - 06:30 PM EDT / 2020.08.14 2230 UTC
Wind: Variable at 1 MPH (1 KT):0
Visibility: greater than 7 mile(s):0 Temperature: 66 F (19 C) Dew Point: 62 F (17 C) Relative Humidity: 88% Pressure (altimeter): 30.00 in. Hg (1016 hPa)
ob: LFSB 142230Z AUTO VRB01KT CAVOK 19/17 Q1016 NOSIG cycle: 22
Sunrise: 04:29 Sunset: 18:39 (UTC)

TAF:2020/08/14 18:21 TAF LFSB 141700Z 1418/1518 16005KT 9999 FEW040 SCT060 TEMPO 1418/1420 FEW040TCU PROB30 TEMPO 1502/1505 MIFG PROB40 TEMPO 1510/1516 FEW040TCU

This route has never been flown.

Route map